KFTK

Godman AAF Airport

Fort Knox, Kentucky, USA
METAR KFTK 222056Z AUTO 22009KT 10SM CLR 18/M01 A3017 RMK AO2 SLP221 T01821011 55012
Observed Flight Rules
Oct-22 @ 20:56 UTC (19 minutes ago) Visual Flight Rules
Wind Visibility Clouds
220° at 9 knots 10 miles
  • Clear skies
Temperatures Readings
Current 18°C / 64°F
Dewpoint -1°C / 30°F
Humidity 28%
Altimeter 30.17" Hg
Pressure 1022.1 hPa
Elevation 230
METAR KFTK 222056Z AUTO 22009KT 10SM CLR 18/M01 A3017 RMK AO2 SLP221 T01821011 55012
Observed Flight Rules
Oct-22 @ 20:56 UTC
(19 minutes ago)
VFR
Wind Visibility
220° at 9 knots 10 miles
Clouds
  • Clear skies
Temperature Dewpoint
18°C / 64°F -1°C / 30°F
Humidity Altimeter Pressure
28% 30.17" Hg 1022.1 hPa